createdAt,value
2019-02-14T00:00:09.349Z,1.08
2019-02-14T00:02:38.648Z,1.04
2019-02-14T00:05:15.881Z,0.97
2019-02-14T00:07:38.930Z,0.90
2019-02-14T00:10:08.343Z,0.78
2019-02-14T00:12:37.676Z,0.77
2019-02-14T00:15:08.222Z,0.49
2019-02-14T00:17:37.507Z,0.62
2019-02-14T00:20:07.648Z,0.59
2019-02-14T00:22:36.904Z,0.77
2019-02-14T00:25:06.994Z,0.57
2019-02-14T00:27:36.348Z,0.53
2019-02-14T00:30:07.001Z,0.56
2019-02-14T00:32:36.265Z,0.70
2019-02-14T00:35:05.787Z,0.66
2019-02-14T00:37:35.065Z,0.45
2019-02-14T00:40:04.529Z,0.60
2019-02-14T00:42:33.812Z,0.65
2019-02-14T00:45:03.105Z,0.87
2019-02-14T00:47:32.365Z,0.76
2019-02-14T00:50:01.658Z,0.83
2019-02-14T00:52:30.937Z,0.80
2019-02-14T00:55:00.287Z,0.82
2019-02-14T00:57:30.564Z,0.75
2019-02-14T00:59:59.835Z,0.75
2019-02-14T01:02:29.116Z,0.91
2019-02-14T01:04:58.368Z,1.03
2019-02-14T01:07:27.638Z,1.03
2019-02-14T01:09:56.887Z,1.09
2019-02-14T01:12:26.173Z,1.03
2019-02-14T01:14:55.468Z,1.05
2019-02-14T01:17:24.902Z,0.78
2019-02-14T01:19:54.157Z,0.60
2019-02-14T01:22:23.418Z,0.42
2019-02-14T01:24:52.683Z,0.32
2019-02-14T01:27:21.923Z,0.23
2019-02-14T01:29:51.210Z,0.17
2019-02-14T01:32:21.809Z,0.11
2019-02-14T01:34:51.057Z,0.00
2019-02-14T01:37:20.359Z,0.19
2019-02-14T01:39:49.615Z,0.04
2019-02-14T01:42:18.892Z,0.09
2019-02-14T01:44:48.152Z,0.18
2019-02-14T01:47:17.434Z,0.19
2019-02-14T01:49:46.687Z,0.29
2019-02-14T01:52:15.960Z,0.18
2019-02-14T01:54:45.274Z,0.16
2019-02-14T01:57:14.530Z,0.21
2019-02-14T01:59:43.793Z,0.32
2019-02-14T02:02:13.044Z,0.15
2019-02-14T02:04:42.328Z,0.15
2019-02-14T02:07:11.580Z,0.23
2019-02-14T02:09:40.841Z,0.30
2019-02-14T02:12:10.112Z,0.36
2019-02-14T02:14:39.367Z,0.48
2019-02-14T02:17:08.651Z,0.57
2019-02-14T02:19:37.905Z,0.61
2019-02-14T02:22:07.498Z,0.57
2019-02-14T02:24:36.759Z,0.66
2019-02-14T02:27:06.111Z,0.62
2019-02-14T02:29:35.390Z,0.56
2019-02-14T02:32:04.664Z,0.65
2019-02-14T02:34:33.952Z,0.68
2019-02-14T02:37:03.266Z,0.59
2019-02-14T02:39:32.547Z,0.73
2019-02-14T02:42:01.816Z,0.76
2019-02-14T02:44:31.075Z,0.71
2019-02-14T02:47:00.347Z,0.64
2019-02-14T02:49:29.608Z,0.58
2019-02-14T02:51:58.884Z,0.48
2019-02-14T02:54:28.137Z,0.58
2019-02-14T02:56:58.367Z,0.61
2019-02-14T02:59:27.643Z,0.52
2019-02-14T03:01:58.105Z,0.36
2019-02-14T03:04:27.395Z,0.48
2019-02-14T03:06:56.649Z,0.47
2019-02-14T03:09:25.921Z,0.51
2019-02-14T03:11:55.208Z,0.57
2019-02-14T03:14:24.451Z,0.35
2019-02-14T03:16:53.731Z,0.27
2019-02-14T03:19:22.972Z,0.13
2019-02-14T03:21:52.244Z,0.27
2019-02-14T03:24:21.478Z,0.29
2019-02-14T03:26:50.753Z,0.28
2019-02-14T03:29:20.027Z,0.21
2019-02-14T03:31:49.285Z,0.34
2019-02-14T03:34:18.579Z,0.27
2019-02-14T03:36:47.821Z,0.16
2019-02-14T03:39:17.125Z,0.16
2019-02-14T03:41:46.384Z,-0.10
2019-02-14T03:44:15.652Z,0.00
2019-02-14T03:46:44.937Z,-0.01
2019-02-14T03:49:14.197Z,0.03
2019-02-14T03:51:43.474Z,0.22
2019-02-14T03:54:12.728Z,0.18
2019-02-14T03:56:41.993Z,0.07
2019-02-14T03:59:11.235Z,0.08
2019-02-14T04:01:40.508Z,-0.03
2019-02-14T04:04:09.775Z,-0.16
2019-02-14T04:06:39.037Z,-0.02
2019-02-14T04:09:08.629Z,0.11
2019-02-14T04:11:37.876Z,0.07
2019-02-14T04:14:07.153Z,-0.09
2019-02-14T04:16:36.437Z,-0.07
2019-02-14T04:19:05.720Z,0.03
2019-02-14T04:21:34.969Z,0.15
2019-02-14T04:24:04.237Z,0.14
2019-02-14T04:26:33.495Z,0.22
2019-02-14T04:29:02.820Z,0.17
2019-02-14T04:31:32.067Z,0.10
2019-02-14T04:34:01.339Z,0.19
2019-02-14T04:36:35.962Z,-0.07
2019-02-14T04:39:01.606Z,0.05
2019-02-14T04:41:30.896Z,-0.02
2019-02-14T04:44:00.159Z,-0.07
2019-02-14T04:46:29.435Z,-0.05
2019-02-14T04:48:58.685Z,0.14
2019-02-14T04:51:27.971Z,0.21
2019-02-14T04:53:57.257Z,0.17
2019-02-14T04:56:26.512Z,0.21
2019-02-14T04:58:55.803Z,0.09
2019-02-14T05:01:25.057Z,0.17
2019-02-14T05:03:54.327Z,0.10
2019-02-14T05:06:23.580Z,0.09
2019-02-14T05:08:52.869Z,0.16
2019-02-14T05:11:22.119Z,0.11
2019-02-14T05:13:51.386Z,0.19
2019-02-14T05:16:20.652Z,0.03
2019-02-14T05:18:49.912Z,-0.14
2019-02-14T05:21:19.201Z,-0.18
2019-02-14T05:23:48.449Z,-0.23
2019-02-14T05:26:17.747Z,-0.11
2019-02-14T05:28:47.005Z,-0.03
2019-02-14T05:31:16.272Z,-0.08
2019-02-14T05:33:45.557Z,-0.09
2019-02-14T05:36:14.842Z,0.18
2019-02-14T05:38:44.125Z,0.09
2019-02-14T05:41:13.400Z,0.02
2019-02-14T05:43:42.716Z,0.21
2019-02-14T05:46:11.968Z,0.10
2019-02-14T05:48:41.223Z,0.15
2019-02-14T05:51:10.513Z,0.09
2019-02-14T05:53:39.762Z,0.16
2019-02-14T05:56:10.049Z,0.23
2019-02-14T05:58:39.305Z,0.05
2019-02-14T06:01:10.256Z,-0.05
2019-02-14T06:03:39.898Z,0.05
2019-02-14T06:06:10.968Z,-0.03
2019-02-14T06:08:40.801Z,0.09
2019-02-14T06:11:11.506Z,0.13
2019-02-14T06:13:41.203Z,0.18
2019-02-14T06:16:31.143Z,0.09
2019-02-14T06:19:00.675Z,0.05
2019-02-14T06:21:34.355Z,0.29
2019-02-14T06:24:03.941Z,0.42
2019-02-14T06:26:33.774Z,0.41
2019-02-14T06:29:03.150Z,0.49
2019-02-14T06:31:32.626Z,0.54
2019-02-14T06:34:02.194Z,0.76
2019-02-14T06:36:32.258Z,0.56
2019-02-14T06:39:04.547Z,0.47
2019-02-14T06:41:34.053Z,0.56
2019-02-14T06:44:03.551Z,0.47
2019-02-14T06:46:34.535Z,0.34
2019-02-14T06:49:04.169Z,0.28
2019-02-14T06:51:33.819Z,0.12
2019-02-14T06:54:03.248Z,0.37
2019-02-14T06:56:32.504Z,0.41
2019-02-14T06:59:01.782Z,0.33
2019-02-14T07:01:31.049Z,0.41
2019-02-14T07:04:00.392Z,0.33
2019-02-14T07:06:29.645Z,0.35
2019-02-14T07:08:58.954Z,0.47
2019-02-14T07:11:29.720Z,0.55
2019-02-14T07:13:58.990Z,0.47
2019-02-14T07:16:29.719Z,0.55
2019-02-14T07:18:58.981Z,0.63
2019-02-14T07:21:28.253Z,0.88
2019-02-14T07:23:57.512Z,0.85
2019-02-14T07:26:26.805Z,0.77
2019-02-14T07:28:56.064Z,1.08
2019-02-14T07:31:25.328Z,1.13
2019-02-14T07:33:54.616Z,1.01
2019-02-14T07:36:24.078Z,0.99
2019-02-14T07:38:53.437Z,1.34
2019-02-14T07:41:22.693Z,1.12
2019-02-14T07:43:52.007Z,1.22
2019-02-14T07:46:22.925Z,1.03
2019-02-14T07:48:52.335Z,1.17
2019-02-14T07:51:21.631Z,1.15
2019-02-14T07:53:52.705Z,1.40
2019-02-14T07:56:21.993Z,1.32
2019-02-14T07:58:51.253Z,1.40
2019-02-14T08:01:20.658Z,1.58
2019-02-14T08:03:49.927Z,1.83
2019-02-14T08:06:19.198Z,1.61
2019-02-14T08:08:48.490Z,1.58
2019-02-14T08:11:17.746Z,1.77
2019-02-14T08:13:47.043Z,1.47
2019-02-14T08:16:16.292Z,1.76
2019-02-14T08:18:45.571Z,1.65
2019-02-14T08:21:14.906Z,1.81
2019-02-14T08:23:44.174Z,1.93
2019-02-14T08:26:13.477Z,1.89
2019-02-14T08:28:42.736Z,1.99
2019-02-14T08:31:12.078Z,2.24
2019-02-14T08:33:41.359Z,2.29
2019-02-14T08:36:10.811Z,2.46
2019-02-14T08:38:40.081Z,2.70
2019-02-14T08:41:09.393Z,3.04
2019-02-14T08:43:38.721Z,3.02
2019-02-14T08:46:07.982Z,2.64
2019-02-14T08:48:37.275Z,2.56
2019-02-14T08:51:07.149Z,2.40
2019-02-14T08:53:36.441Z,2.50
2019-02-14T08:56:05.808Z,2.56
2019-02-14T08:58:35.104Z,2.86
2019-02-14T09:01:04.667Z,2.72
2019-02-14T09:03:33.939Z,2.69
2019-02-14T09:06:03.217Z,2.75
2019-02-14T09:08:32.488Z,3.14
2019-02-14T09:11:01.820Z,3.10
2019-02-14T09:13:31.136Z,2.85
2019-02-14T09:16:00.425Z,2.97
2019-02-14T09:18:29.758Z,3.29
2019-02-14T09:21:00.317Z,3.52
2019-02-14T09:23:29.669Z,3.47
2019-02-14T09:25:58.935Z,3.26
2019-02-14T09:28:36.486Z,3.46
2019-02-14T09:31:07.485Z,3.45
2019-02-14T09:33:36.766Z,3.40
2019-02-14T09:36:06.046Z,3.19
2019-02-14T09:38:36.445Z,3.52
2019-02-14T09:41:05.727Z,3.52
2019-02-14T09:43:35.043Z,3.40
2019-02-14T09:46:04.328Z,3.59
2019-02-14T09:48:33.597Z,3.49
2019-02-14T09:51:02.915Z,3.87
2019-02-14T09:53:32.186Z,3.87
2019-02-14T09:56:01.523Z,4.07
2019-02-14T09:58:30.868Z,3.92
2019-02-14T10:01:01.156Z,3.90
2019-02-14T10:03:30.485Z,4.20
2019-02-14T10:05:59.714Z,4.07
2019-02-14T10:08:29.032Z,4.62
2019-02-14T10:10:58.272Z,4.99
2019-02-14T10:13:27.575Z,5.14
2019-02-14T10:15:56.851Z,5.09
2019-02-14T10:18:26.124Z,4.82
2019-02-14T10:20:55.404Z,5.28
2019-02-14T10:23:24.705Z,4.99
2019-02-14T10:25:53.978Z,4.99
2019-02-14T10:28:23.247Z,5.21
2019-02-14T10:30:52.517Z,5.47
2019-02-14T10:33:21.778Z,5.77
2019-02-14T10:35:51.123Z,5.77
2019-02-14T10:38:22.673Z,5.79
2019-02-14T10:40:51.625Z,5.77
2019-02-14T10:43:22.056Z,6.21
2019-02-14T10:45:51.317Z,5.78
2019-02-14T10:48:20.605Z,5.79
2019-02-14T10:50:49.880Z,5.81
2019-02-14T10:53:19.192Z,6.36
2019-02-14T10:55:48.461Z,6.85
2019-02-14T10:58:17.730Z,7.12
2019-02-14T11:00:47.009Z,7.76
2019-02-14T11:03:16.401Z,7.52
2019-02-14T11:05:45.719Z,6.94
2019-02-14T11:08:15.021Z,8.45
2019-02-14T11:10:44.305Z,8.35
2019-02-14T11:13:13.635Z,8.28
2019-02-14T11:15:42.946Z,8.92
2019-02-14T11:18:12.259Z,8.08
2019-02-14T11:20:41.524Z,8.18
2019-02-14T11:23:10.806Z,8.53
2019-02-14T11:25:40.077Z,8.02
2019-02-14T11:28:09.371Z,8.65
2019-02-14T11:30:38.626Z,7.80
2019-02-14T11:33:07.908Z,7.73
2019-02-14T11:35:37.172Z,7.68
2019-02-14T11:38:06.506Z,8.00
2019-02-14T11:40:35.789Z,8.23
2019-02-14T11:43:05.055Z,8.38
2019-02-14T11:45:34.407Z,8.77
2019-02-14T11:48:03.753Z,9.11
2019-02-14T11:50:33.037Z,9.71
2019-02-14T11:53:02.367Z,10.46
2019-02-14T11:55:31.655Z,11.65
2019-02-14T11:58:00.962Z,11.43
2019-02-14T12:00:30.268Z,10.77
2019-02-14T12:02:59.567Z,10.81
2019-02-14T12:05:28.855Z,10.88
2019-02-14T12:07:58.121Z,10.78
2019-02-14T12:10:27.406Z,11.68
2019-02-14T12:12:56.801Z,13.39
2019-02-14T12:15:26.075Z,14.27
2019-02-14T12:17:55.340Z,14.31
2019-02-14T12:20:24.631Z,14.31
2019-02-14T12:22:53.923Z,14.40
2019-02-14T12:25:23.450Z,14.49
2019-02-14T12:27:52.753Z,15.73
2019-02-14T12:30:22.021Z,16.40
2019-02-14T12:32:51.311Z,16.40
2019-02-14T12:35:20.579Z,15.07
2019-02-14T12:37:49.919Z,15.32
2019-02-14T12:40:19.239Z,14.90
2019-02-14T12:42:48.494Z,15.40
2019-02-14T12:47:50.990Z,12.97
2019-02-14T12:50:20.293Z,12.75
2019-02-14T12:52:49.579Z,11.75
2019-02-14T12:55:18.915Z,11.61
2019-02-14T12:57:48.184Z,10.98
2019-02-14T13:00:19.459Z,10.81
2019-02-14T13:02:49.749Z,11.06
2019-02-14T13:05:19.001Z,11.83
2019-02-14T13:07:48.305Z,12.26
2019-02-14T13:10:17.609Z,12.98
2019-02-14T13:12:46.910Z,14.34
2019-02-14T13:15:18.267Z,15.43
2019-02-14T13:17:47.542Z,14.77
2019-02-14T13:20:16.824Z,15.65
2019-02-14T13:22:46.107Z,14.47
2019-02-14T13:25:15.382Z,13.61
2019-02-14T13:27:44.671Z,13.62
2019-02-14T13:30:16.673Z,12.75
2019-02-14T13:32:45.949Z,12.87
2019-02-14T13:35:15.205Z,12.78
2019-02-14T13:37:44.502Z,12.18
2019-02-14T13:40:13.958Z,12.46
2019-02-14T13:42:43.245Z,12.49
2019-02-14T13:45:14.112Z,11.98
2019-02-14T13:47:43.416Z,11.95
2019-02-14T13:50:15.738Z,11.25
2019-02-14T13:52:44.229Z,11.55
2019-02-14T13:55:13.679Z,11.14
2019-02-14T13:57:42.933Z,11.32
2019-02-14T14:00:16.225Z,11.38
2019-02-14T14:02:45.481Z,12.11
2019-02-14T14:05:14.833Z,11.90
2019-02-14T14:07:44.131Z,11.47
2019-02-14T14:10:13.394Z,11.62
2019-02-14T14:12:42.686Z,11.18
2019-02-14T14:15:11.965Z,11.09
2019-02-14T14:17:41.251Z,11.28
2019-02-14T14:20:10.618Z,11.45
2019-02-14T14:22:39.894Z,11.33
2019-02-14T14:25:09.393Z,10.72
2019-02-14T14:27:40.596Z,10.79
2019-02-14T14:30:10.365Z,10.99
2019-02-14T14:32:39.647Z,11.44
2019-02-14T14:35:10.919Z,11.08
2019-02-14T14:37:40.583Z,11.07
2019-02-14T14:40:11.008Z,11.18
2019-02-14T14:43:08.090Z,11.16
2019-02-14T14:45:56.459Z,11.32
2019-02-14T14:48:28.172Z,11.07
2019-02-14T14:50:57.438Z,11.14
2019-02-14T14:53:26.713Z,11.30
2019-02-14T14:55:55.986Z,10.74
2019-02-14T14:58:25.296Z,11.31
2019-02-14T15:00:54.551Z,10.95
2019-02-14T15:03:23.821Z,10.92
2019-02-14T15:05:53.335Z,10.81
2019-02-14T15:08:22.684Z,10.96
2019-02-14T15:10:51.960Z,10.62
2019-02-14T15:13:21.248Z,10.31
2019-02-14T15:15:50.500Z,10.33
2019-02-14T15:18:19.751Z,10.05
2019-02-14T15:20:49.029Z,10.07
2019-02-14T15:23:18.299Z,10.54
2019-02-14T15:25:47.547Z,10.55
2019-02-14T15:28:16.828Z,10.75
2019-02-14T15:30:46.115Z,10.57
2019-02-14T15:33:15.392Z,10.20
2019-02-14T15:35:44.708Z,10.10
2019-02-14T15:38:13.960Z,9.97
2019-02-14T15:40:43.240Z,9.91
2019-02-14T15:43:12.515Z,9.85
2019-02-14T15:45:41.800Z,9.81
2019-02-14T15:48:11.063Z,9.61
2019-02-14T15:50:40.345Z,9.63
2019-02-14T15:53:10.690Z,9.58
2019-02-14T15:55:41.677Z,9.51
2019-02-14T15:58:10.938Z,9.43
2019-02-14T16:00:40.208Z,9.41
2019-02-14T16:03:09.451Z,9.25
2019-02-14T16:05:40.329Z,9.25
2019-02-14T16:08:09.699Z,9.05
2019-02-14T16:10:38.996Z,8.99
2019-02-14T16:13:09.838Z,8.91
2019-02-14T16:15:39.218Z,8.82
2019-02-14T16:18:08.495Z,8.75
2019-02-14T16:20:40.405Z,8.72
2019-02-14T16:23:09.766Z,8.65
2019-02-14T16:25:39.089Z,8.56
2019-02-14T16:28:11.010Z,8.46
2019-02-14T16:30:39.420Z,8.34
2019-02-14T16:33:08.669Z,8.34
2019-02-14T16:35:37.968Z,8.26
2019-02-14T16:38:07.299Z,8.14
2019-02-14T16:40:38.840Z,8.05
2019-02-14T16:43:07.607Z,7.92
2019-02-14T16:45:38.759Z,7.71
2019-02-14T16:48:10.598Z,7.62
2019-02-14T16:50:41.128Z,7.53
2019-02-14T16:53:11.616Z,7.54
2019-02-14T16:55:41.300Z,7.50
2019-02-14T16:58:10.605Z,7.39
2019-02-14T17:00:40.061Z,7.34
2019-02-14T17:03:09.340Z,7.39
2019-02-14T17:05:38.934Z,7.31
2019-02-14T17:08:08.194Z,7.24
2019-02-14T17:10:37.518Z,7.12
2019-02-14T17:13:06.777Z,7.12
2019-02-14T17:15:36.632Z,7.03
2019-02-14T17:18:05.912Z,6.89
2019-02-14T17:20:35.257Z,6.76
2019-02-14T17:23:05.362Z,6.70
2019-02-14T17:25:34.655Z,6.71
2019-02-14T17:28:03.958Z,6.68
2019-02-14T17:30:33.193Z,6.64
2019-02-14T17:33:02.470Z,6.55
2019-02-14T17:35:31.736Z,6.45
2019-02-14T17:38:01.024Z,6.33
2019-02-14T17:40:30.319Z,6.26
2019-02-14T17:42:59.611Z,6.21
2019-02-14T17:45:28.903Z,5.89
2019-02-14T17:47:58.325Z,5.81
2019-02-14T17:50:27.572Z,5.83
2019-02-14T17:52:56.850Z,5.86
2019-02-14T17:55:26.155Z,5.80
2019-02-14T17:57:55.396Z,5.79
2019-02-14T18:00:24.681Z,5.76
2019-02-14T18:02:54.198Z,5.73
2019-02-14T18:05:23.495Z,5.68
2019-02-14T18:07:52.769Z,5.72
2019-02-14T18:10:22.067Z,5.63
2019-02-14T18:12:51.394Z,5.58
2019-02-14T18:15:20.917Z,5.56
2019-02-14T18:17:50.235Z,5.56
2019-02-14T18:20:19.612Z,5.51
2019-02-14T18:22:49.985Z,5.42
2019-02-14T18:25:19.296Z,5.39
2019-02-14T18:27:48.672Z,5.21
2019-02-14T18:30:17.976Z,5.00
2019-02-14T18:32:47.278Z,4.97
2019-02-14T18:35:16.555Z,5.11
2019-02-14T18:37:45.835Z,5.07
2019-02-14T18:40:15.119Z,5.07
2019-02-14T18:42:46.052Z,4.99
2019-02-14T18:45:15.450Z,4.92
2019-02-14T18:47:46.783Z,5.00
2019-02-14T18:50:18.410Z,5.08
2019-02-14T18:52:48.178Z,5.05
2019-02-14T18:55:18.391Z,4.92
2019-02-14T18:57:47.829Z,4.91
2019-02-14T19:00:17.199Z,5.00
2019-02-14T19:02:46.481Z,4.88
2019-02-14T19:05:17.591Z,4.78
2019-02-14T19:07:46.890Z,4.79
2019-02-14T19:10:16.209Z,4.81
2019-02-14T19:12:47.096Z,4.81
2019-02-14T19:15:16.350Z,4.75
2019-02-14T19:17:45.657Z,4.62
2019-02-14T19:20:14.924Z,4.63
2019-02-14T19:22:44.221Z,4.63
2019-02-14T19:25:13.928Z,4.42
2019-02-14T19:27:43.349Z,4.51
2019-02-14T19:30:16.895Z,4.52
2019-02-14T19:32:46.171Z,4.43
2019-02-14T19:35:22.826Z,4.33
2019-02-14T19:37:46.508Z,4.19
2019-02-14T19:40:15.803Z,4.18
2019-02-14T19:42:45.338Z,4.04
2019-02-14T19:45:14.716Z,3.99
2019-02-14T19:47:44.036Z,3.99
2019-02-14T19:50:13.561Z,3.89
2019-02-14T19:52:42.832Z,3.88
2019-02-14T19:55:12.324Z,3.98
2019-02-14T19:57:41.585Z,3.98
2019-02-14T20:00:12.709Z,3.95
2019-02-14T20:02:45.304Z,3.89
2019-02-14T20:05:14.627Z,3.64
2019-02-14T20:07:43.973Z,3.61
2019-02-14T20:10:13.344Z,3.53
2019-02-14T20:12:42.754Z,3.45
2019-02-14T20:15:13.941Z,3.39
2019-02-14T20:17:43.272Z,3.37
2019-02-14T20:20:12.726Z,3.33
2019-02-14T20:22:43.414Z,3.53
2019-02-14T20:25:13.976Z,3.37
2019-02-14T20:27:43.411Z,3.23
2019-02-14T20:30:12.749Z,3.23
2019-02-14T20:32:42.152Z,3.09
2019-02-14T20:35:11.844Z,3.17
2019-02-14T20:37:41.095Z,3.25
2019-02-14T20:40:10.683Z,3.26
2019-02-14T20:42:40.080Z,3.10
2019-02-14T20:45:10.736Z,3.13
2019-02-14T20:47:40.047Z,3.14
2019-02-14T20:50:11.168Z,2.89
2019-02-14T20:52:42.056Z,2.94
2019-02-14T20:55:13.159Z,2.92
2019-02-14T20:57:42.536Z,2.79
2019-02-14T21:00:22.319Z,2.84
2019-02-14T21:02:51.653Z,2.72
2019-02-14T21:05:21.305Z,2.71
2019-02-14T21:07:51.091Z,2.48
2019-02-14T21:10:21.853Z,2.70
2019-02-14T21:12:51.170Z,2.51
2019-02-14T21:15:20.448Z,2.33
2019-02-14T21:17:49.794Z,2.42
2019-02-14T21:20:19.354Z,2.29
2019-02-14T21:22:48.738Z,2.07
2019-02-14T21:25:22.594Z,2.06
2019-02-14T21:27:49.073Z,2.09
2019-02-14T21:30:19.226Z,2.18
2019-02-14T21:32:50.162Z,2.31
2019-02-14T21:35:19.441Z,2.24
2019-02-14T21:37:49.195Z,2.14
2019-02-14T21:40:18.929Z,2.07
2019-02-14T21:42:48.333Z,2.12
2019-02-14T21:45:18.330Z,1.97
2019-02-14T21:47:48.047Z,2.00
2019-02-14T21:50:18.819Z,2.04
2019-02-14T21:52:48.358Z,2.07
2019-02-14T21:55:17.785Z,2.03
2019-02-14T21:57:47.193Z,2.07
2019-02-14T22:00:18.523Z,2.12
2019-02-14T22:02:48.810Z,2.08
2019-02-14T22:05:24.605Z,1.95
2019-02-14T22:07:49.924Z,1.99
2019-02-14T22:10:19.511Z,2.11
2019-02-14T22:12:48.827Z,1.83
2019-02-14T22:15:18.205Z,1.86
2019-02-14T22:17:48.150Z,1.82
2019-02-14T22:20:17.450Z,1.74
2019-02-14T22:22:46.712Z,1.77
2019-02-14T22:25:15.970Z,1.87
2019-02-14T22:27:46.490Z,1.83
2019-02-14T22:30:16.238Z,1.71
2019-02-14T22:32:46.005Z,1.75
2019-02-14T22:35:15.376Z,1.68
2019-02-14T22:37:44.760Z,1.59
2019-02-14T22:40:14.039Z,1.60
2019-02-14T22:42:47.186Z,1.55
2019-02-14T22:45:14.605Z,1.48
2019-02-14T22:47:45.254Z,1.65
2019-02-14T22:50:14.938Z,1.72
2019-02-14T22:52:45.270Z,1.74
2019-02-14T22:55:14.719Z,1.51
2019-02-14T22:57:43.996Z,1.56
2019-02-14T23:00:29.960Z,1.49
2019-02-14T23:02:59.251Z,1.46
2019-02-14T23:05:28.714Z,1.48
2019-02-14T23:07:57.973Z,1.44
2019-02-14T23:10:27.636Z,1.50
2019-02-14T23:12:57.101Z,1.45
2019-02-14T23:15:26.387Z,1.22
2019-02-14T23:17:55.755Z,1.20
2019-02-14T23:20:25.053Z,1.28
2019-02-14T23:22:54.298Z,1.40
2019-02-14T23:25:23.578Z,1.27
2019-02-14T23:27:52.819Z,1.22
2019-02-14T23:30:22.121Z,1.12
2019-02-14T23:32:51.368Z,1.21
2019-02-14T23:35:20.646Z,1.23
2019-02-14T23:37:49.908Z,1.18
2019-02-14T23:40:19.195Z,1.27
2019-02-14T23:42:48.448Z,1.16
2019-02-14T23:45:17.724Z,1.10
2019-02-14T23:47:46.988Z,1.00
2019-02-14T23:50:16.269Z,0.91
2019-02-14T23:52:45.520Z,0.83
2019-02-14T23:55:14.797Z,0.95
2019-02-14T23:57:44.041Z,0.85
